sensor_id;sensor_type;location;lat;lon;timestamp;P1;durP1;ratioP1;P2;durP2;ratioP2
75730;SDS011;64350;47.450;19.124;2022-11-20T06:03:35;35.28;;;14.00;;
75730;SDS011;64350;47.450;19.124;2022-11-20T06:06:02;30.90;;;12.03;;
75730;SDS011;64350;47.450;19.124;2022-11-20T06:08:29;33.22;;;13.75;;
75730;SDS011;64350;47.450;19.124;2022-11-20T06:10:54;34.90;;;13.65;;
75730;SDS011;64350;47.450;19.124;2022-11-20T06:13:20;34.50;;;13.63;;
75730;SDS011;64350;47.450;19.124;2022-11-20T06:15:50;31.50;;;13.95;;
75730;SDS011;64350;47.450;19.124;2022-11-20T06:18:16;31.52;;;13.82;;
75730;SDS011;64350;47.450;19.124;2022-11-20T06:20:42;31.15;;;13.90;;
75730;SDS011;64350;47.450;19.124;2022-11-20T06:23:08;35.13;;;14.40;;
75730;SDS011;64350;47.450;19.124;2022-11-20T06:25:37;34.20;;;13.93;;
75730;SDS011;64350;47.450;19.124;2022-11-20T06:28:03;31.77;;;13.80;;
75730;SDS011;64350;47.450;19.124;2022-11-20T06:30:29;33.73;;;14.07;;
75730;SDS011;64350;47.450;19.124;2022-11-20T06:32:54;33.70;;;14.30;;
75730;SDS011;64350;47.450;19.124;2022-11-20T06:35:19;31.27;;;13.20;;
75730;SDS011;64350;47.450;19.124;2022-11-20T06:37:45;31.80;;;14.70;;
75730;SDS011;64350;47.450;19.124;2022-11-20T06:40:11;31.60;;;13.00;;
75730;SDS011;64350;47.450;19.124;2022-11-20T06:42:36;30.80;;;13.85;;
75730;SDS011;64350;47.450;19.124;2022-11-20T06:45:02;33.75;;;14.13;;
75730;SDS011;64350;47.450;19.124;2022-11-20T06:47:28;30.20;;;12.50;;
75730;SDS011;64350;47.450;19.124;2022-11-20T06:52:39;32.47;;;13.52;;
75730;SDS011;64350;47.450;19.124;2022-11-20T06:55:04;29.07;;;13.20;;
75730;SDS011;64350;47.450;19.124;2022-11-20T06:57:30;28.10;;;12.70;;
75730;SDS011;64350;47.450;19.124;2022-11-20T06:59:55;27.20;;;12.07;;
75730;SDS011;64350;47.450;19.124;2022-11-20T07:02:21;29.10;;;12.40;;
75730;SDS011;64350;47.450;19.124;2022-11-20T07:04:48;28.02;;;12.55;;
75730;SDS011;64350;47.450;19.124;2022-11-20T07:07:13;29.57;;;13.67;;
75730;SDS011;64350;47.450;19.124;2022-11-20T07:09:39;29.90;;;13.35;;
75730;SDS011;64350;47.450;19.124;2022-11-20T07:12:04;31.00;;;13.03;;
75730;SDS011;64350;47.450;19.124;2022-11-20T07:14:30;29.53;;;13.23;;
75730;SDS011;64350;47.450;19.124;2022-11-20T07:16:55;27.87;;;12.83;;
75730;SDS011;64350;47.450;19.124;2022-11-20T07:19:21;28.53;;;13.10;;
75730;SDS011;64350;47.450;19.124;2022-11-20T07:21:46;28.10;;;12.67;;
75730;SDS011;64350;47.450;19.124;2022-11-20T07:24:12;28.83;;;12.17;;
75730;SDS011;64350;47.450;19.124;2022-11-20T07:26:37;27.97;;;12.37;;
75730;SDS011;64350;47.450;19.124;2022-11-20T07:29:02;28.05;;;12.80;;
75730;SDS011;64350;47.450;19.124;2022-11-20T07:31:28;31.07;;;12.27;;
75730;SDS011;64350;47.450;19.124;2022-11-20T07:33:53;25.63;;;11.90;;
75730;SDS011;64350;47.450;19.124;2022-11-20T07:36:19;27.00;;;12.63;;
75730;SDS011;64350;47.450;19.124;2022-11-20T07:38:44;27.90;;;11.83;;
75730;SDS011;64350;47.450;19.124;2022-11-20T07:41:10;26.70;;;11.47;;
75730;SDS011;64350;47.450;19.124;2022-11-20T07:43:35;27.40;;;11.20;;
75730;SDS011;64350;47.450;19.124;2022-11-20T07:46:01;27.13;;;11.47;;
75730;SDS011;64350;47.450;19.124;2022-11-20T07:48:26;26.17;;;10.93;;
75730;SDS011;64350;47.450;19.124;2022-11-20T07:50:55;26.13;;;11.27;;
75730;SDS011;64350;47.450;19.124;2022-11-20T07:53:21;25.48;;;11.57;;
75730;SDS011;64350;47.450;19.124;2022-11-20T07:55:47;27.80;;;11.52;;
75730;SDS011;64350;47.450;19.124;2022-11-20T07:58:13;26.47;;;12.10;;
75730;SDS011;64350;47.450;19.124;2022-11-20T08:00:39;27.02;;;12.07;;
75730;SDS011;64350;47.450;19.124;2022-11-20T08:03:04;27.83;;;12.57;;
75730;SDS011;64350;47.450;19.124;2022-11-20T08:05:30;28.62;;;12.48;;
75730;SDS011;64350;47.450;19.124;2022-11-20T08:07:56;24.98;;;12.00;;
75730;SDS011;64350;47.450;19.124;2022-11-20T08:10:22;30.40;;;12.67;;
75730;SDS011;64350;47.450;19.124;2022-11-20T08:12:48;27.73;;;13.07;;
75730;SDS011;64350;47.450;19.124;2022-11-20T08:15:33;30.37;;;12.63;;
75730;SDS011;64350;47.450;19.124;2022-11-20T08:18:00;28.57;;;12.93;;
75730;SDS011;64350;47.450;19.124;2022-11-20T08:20:26;28.27;;;12.77;;
75730;SDS011;64350;47.450;19.124;2022-11-20T08:22:52;27.60;;;13.43;;
75730;SDS011;64350;47.450;19.124;2022-11-20T08:25:17;31.97;;;13.20;;
75730;SDS011;64350;47.450;19.124;2022-11-20T08:27:43;31.10;;;13.53;;
75730;SDS011;64350;47.450;19.124;2022-11-20T08:30:08;30.33;;;13.47;;
75730;SDS011;64350;47.450;19.124;2022-11-20T08:32:34;32.08;;;14.10;;
75730;SDS011;64350;47.450;19.124;2022-11-20T08:35:02;33.75;;;15.15;;
75730;SDS011;64350;47.450;19.124;2022-11-20T08:37:27;30.10;;;13.93;;
75730;SDS011;64350;47.450;19.124;2022-11-20T08:39:53;34.17;;;15.20;;
75730;SDS011;64350;47.450;19.124;2022-11-20T08:42:19;31.02;;;14.07;;
75730;SDS011;64350;47.450;19.124;2022-11-20T08:44:44;33.00;;;14.30;;
75730;SDS011;64350;47.450;19.124;2022-11-20T08:47:09;31.70;;;14.45;;
75730;SDS011;64350;47.450;19.124;2022-11-20T08:49:35;31.80;;;13.87;;
75730;SDS011;64350;47.450;19.124;2022-11-20T08:52:01;30.90;;;14.32;;
75730;SDS011;64350;47.450;19.124;2022-11-20T08:54:26;32.17;;;14.07;;
75730;SDS011;64350;47.450;19.124;2022-11-20T08:56:52;33.30;;;13.77;;
75730;SDS011;64350;47.450;19.124;2022-11-20T08:59:17;31.33;;;15.07;;
75730;SDS011;64350;47.450;19.124;2022-11-20T09:01:43;28.42;;;13.35;;
75730;SDS011;64350;47.450;19.124;2022-11-20T09:04:08;28.77;;;13.30;;
75730;SDS011;64350;47.450;19.124;2022-11-20T09:06:33;34.93;;;15.03;;
75730;SDS011;64350;47.450;19.124;2022-11-20T09:08:59;30.27;;;12.97;;
75730;SDS011;64350;47.450;19.124;2022-11-20T09:11:24;29.60;;;13.83;;
75730;SDS011;64350;47.450;19.124;2022-11-20T09:13:50;28.35;;;13.68;;
75730;SDS011;64350;47.450;19.124;2022-11-20T09:16:18;28.43;;;13.60;;
75730;SDS011;64350;47.450;19.124;2022-11-20T09:18:43;31.48;;;13.77;;
75730;SDS011;64350;47.450;19.124;2022-11-20T09:21:09;30.10;;;13.50;;
75730;SDS011;64350;47.450;19.124;2022-11-20T09:23:37;28.35;;;13.52;;
75730;SDS011;64350;47.450;19.124;2022-11-20T09:26:21;39.07;;;15.00;;
75730;SDS011;64350;47.450;19.124;2022-11-20T09:28:46;31.92;;;14.63;;
75730;SDS011;64350;47.450;19.124;2022-11-20T09:31:22;28.87;;;14.33;;
75730;SDS011;64350;47.450;19.124;2022-11-20T09:33:48;30.17;;;13.80;;
75730;SDS011;64350;47.450;19.124;2022-11-20T09:36:14;33.27;;;15.07;;
75730;SDS011;64350;47.450;19.124;2022-11-20T09:38:44;30.83;;;14.23;;
75730;SDS011;64350;47.450;19.124;2022-11-20T09:41:17;28.25;;;13.93;;
75730;SDS011;64350;47.450;19.124;2022-11-20T09:51:51;32.92;;;13.75;;
75730;SDS011;64350;47.450;19.124;2022-11-20T09:54:22;29.20;;;13.50;;
75730;SDS011;64350;47.450;19.124;2022-11-20T09:57:09;30.25;;;13.65;;
75730;SDS011;64350;47.450;19.124;2022-11-20T09:59:40;31.42;;;14.75;;
75730;SDS011;64350;47.450;19.124;2022-11-20T10:02:23;32.65;;;14.90;;
75730;SDS011;64350;47.450;19.124;2022-11-20T10:04:55;28.25;;;13.82;;
75730;SDS011;64350;47.450;19.124;2022-11-20T10:07:27;31.20;;;14.67;;
75730;SDS011;64350;47.450;19.124;2022-11-20T10:09:57;29.37;;;13.98;;
75730;SDS011;64350;47.450;19.124;2022-11-20T10:12:26;34.10;;;14.68;;
75730;SDS011;64350;47.450;19.124;2022-11-20T10:15:10;31.13;;;13.80;;
75730;SDS011;64350;47.450;19.124;2022-11-20T10:29:15;28.23;;;14.07;;
75730;SDS011;64350;47.450;19.124;2022-11-20T10:31:45;29.20;;;13.85;;
75730;SDS011;64350;47.450;19.124;2022-11-20T10:37:13;29.83;;;13.77;;
75730;SDS011;64350;47.450;19.124;2022-11-20T10:39:48;30.80;;;14.82;;
75730;SDS011;64350;47.450;19.124;2022-11-20T10:42:16;29.60;;;14.73;;
75730;SDS011;64350;47.450;19.124;2022-11-20T10:44:47;28.08;;;14.10;;
75730;SDS011;64350;47.450;19.124;2022-11-20T10:47:25;30.48;;;14.10;;
75730;SDS011;64350;47.450;19.124;2022-11-20T10:49:53;30.12;;;15.45;;
75730;SDS011;64350;47.450;19.124;2022-11-20T11:00:04;28.73;;;14.67;;
75730;SDS011;64350;47.450;19.124;2022-11-20T11:02:33;28.75;;;14.10;;
75730;SDS011;64350;47.450;19.124;2022-11-20T11:05:12;31.45;;;14.85;;
75730;SDS011;64350;47.450;19.124;2022-11-20T11:07:44;28.15;;;13.75;;
75730;SDS011;64350;47.450;19.124;2022-11-20T11:10:28;27.73;;;13.53;;
75730;SDS011;64350;47.450;19.124;2022-11-20T11:13:03;28.50;;;14.18;;
75730;SDS011;64350;47.450;19.124;2022-11-20T11:15:39;28.50;;;13.33;;
75730;SDS011;64350;47.450;19.124;2022-11-20T11:18:09;27.77;;;14.15;;
75730;SDS011;64350;47.450;19.124;2022-11-20T11:20:49;30.15;;;13.75;;
75730;SDS011;64350;47.450;19.124;2022-11-20T11:23:32;26.45;;;14.02;;
75730;SDS011;64350;47.450;19.124;2022-11-20T11:26:00;29.30;;;13.93;;
75730;SDS011;64350;47.450;19.124;2022-11-20T11:28:26;25.33;;;13.33;;
75730;SDS011;64350;47.450;19.124;2022-11-20T11:30:53;27.23;;;14.15;;
75730;SDS011;64350;47.450;19.124;2022-11-20T11:33:20;26.52;;;13.02;;
75730;SDS011;64350;47.450;19.124;2022-11-20T11:35:56;32.70;;;14.38;;
75730;SDS011;64350;47.450;19.124;2022-11-20T11:38:36;27.52;;;13.65;;
75730;SDS011;64350;47.450;19.124;2022-11-20T11:41:04;27.93;;;13.93;;
75730;SDS011;64350;47.450;19.124;2022-11-20T11:43:31;26.42;;;13.57;;
75730;SDS011;64350;47.450;19.124;2022-11-20T11:48:54;30.08;;;14.87;;
75730;SDS011;64350;47.450;19.124;2022-11-20T11:51:22;30.77;;;15.98;;
75730;SDS011;64350;47.450;19.124;2022-11-20T11:53:50;31.17;;;15.63;;
75730;SDS011;64350;47.450;19.124;2022-11-20T11:56:16;32.22;;;16.77;;
75730;SDS011;64350;47.450;19.124;2022-11-20T11:58:45;30.00;;;15.63;;
75730;SDS011;64350;47.450;19.124;2022-11-20T12:04:02;30.70;;;15.77;;
75730;SDS011;64350;47.450;19.124;2022-11-20T12:06:29;31.00;;;14.83;;
75730;SDS011;64350;47.450;19.124;2022-11-20T12:09:01;27.90;;;14.50;;
75730;SDS011;64350;47.450;19.124;2022-11-20T12:14:15;26.98;;;14.32;;
75730;SDS011;64350;47.450;19.124;2022-11-20T12:16:49;30.17;;;15.48;;
75730;SDS011;64350;47.450;19.124;2022-11-20T12:19:15;28.20;;;14.07;;
75730;SDS011;64350;47.450;19.124;2022-11-20T12:33:24;21.70;;;10.63;;
75730;SDS011;64350;47.450;19.124;2022-11-20T12:38:53;24.12;;;11.10;;
75730;SDS011;64350;47.450;19.124;2022-11-20T12:52:57;23.98;;;12.00;;
75730;SDS011;64350;47.450;19.124;2022-11-20T12:58:13;24.92;;;11.15;;
75730;SDS011;64350;47.450;19.124;2022-11-20T13:00:58;22.92;;;11.57;;
75730;SDS011;64350;47.450;19.124;2022-11-20T13:06:17;22.48;;;10.77;;
75730;SDS011;64350;47.450;19.124;2022-11-20T13:08:45;23.03;;;11.03;;
75730;SDS011;64350;47.450;19.124;2022-11-20T13:11:32;24.60;;;12.25;;
75730;SDS011;64350;47.450;19.124;2022-11-20T13:16:33;25.73;;;11.80;;
75730;SDS011;64350;47.450;19.124;2022-11-20T13:19:04;25.67;;;12.20;;
75730;SDS011;64350;47.450;19.124;2022-11-20T13:21:35;25.27;;;11.83;;
75730;SDS011;64350;47.450;19.124;2022-11-20T13:24:06;25.33;;;11.18;;
75730;SDS011;64350;47.450;19.124;2022-11-20T13:26:32;23.00;;;10.75;;
75730;SDS011;64350;47.450;19.124;2022-11-20T13:29:16;20.45;;;9.88;;
75730;SDS011;64350;47.450;19.124;2022-11-20T13:31:44;23.48;;;10.65;;
75730;SDS011;64350;47.450;19.124;2022-11-20T13:34:22;24.53;;;11.87;;
75730;SDS011;64350;47.450;19.124;2022-11-20T13:36:52;24.23;;;11.68;;
75730;SDS011;64350;47.450;19.124;2022-11-20T13:44:45;25.50;;;10.87;;
75730;SDS011;64350;47.450;19.124;2022-11-20T13:47:26;22.05;;;11.25;;
75730;SDS011;64350;47.450;19.124;2022-11-20T13:49:52;22.20;;;10.25;;
75730;SDS011;64350;47.450;19.124;2022-11-20T13:58:06;23.98;;;11.88;;
75730;SDS011;64350;47.450;19.124;2022-11-20T14:00:43;22.27;;;11.07;;
75730;SDS011;64350;47.450;19.124;2022-11-20T14:03:21;25.95;;;11.02;;
75730;SDS011;64350;47.450;19.124;2022-11-20T14:05:49;24.07;;;11.40;;
75730;SDS011;64350;47.450;19.124;2022-11-20T14:08:23;25.80;;;12.13;;
75730;SDS011;64350;47.450;19.124;2022-11-20T14:11:01;25.08;;;12.73;;
75730;SDS011;64350;47.450;19.124;2022-11-20T14:13:30;27.75;;;12.52;;
75730;SDS011;64350;47.450;19.124;2022-11-20T14:15:59;25.95;;;12.32;;
75730;SDS011;64350;47.450;19.124;2022-11-20T14:18:25;25.53;;;12.17;;
75730;SDS011;64350;47.450;19.124;2022-11-20T14:20:51;24.95;;;11.85;;
75730;SDS011;64350;47.450;19.124;2022-11-20T14:23:27;27.77;;;12.77;;
75730;SDS011;64350;47.450;19.124;2022-11-20T14:26:02;26.92;;;13.20;;
75730;SDS011;64350;47.450;19.124;2022-11-20T14:28:29;27.90;;;13.93;;
75730;SDS011;64350;47.450;19.124;2022-11-20T14:30:55;27.35;;;12.73;;
75730;SDS011;64350;47.450;19.124;2022-11-20T14:33:22;27.55;;;12.88;;
75730;SDS011;64350;47.450;19.124;2022-11-20T14:35:50;30.00;;;13.32;;
75730;SDS011;64350;47.450;19.124;2022-11-20T14:38:18;29.25;;;12.48;;
75730;SDS011;64350;47.450;19.124;2022-11-20T14:40:46;27.93;;;13.10;;
75730;SDS011;64350;47.450;19.124;2022-11-20T14:43:22;28.92;;;12.98;;
75730;SDS011;64350;47.450;19.124;2022-11-20T14:45:59;27.63;;;12.60;;
75730;SDS011;64350;47.450;19.124;2022-11-20T14:48:41;30.15;;;13.13;;
75730;SDS011;64350;47.450;19.124;2022-11-20T14:51:11;29.80;;;14.15;;
75730;SDS011;64350;47.450;19.124;2022-11-20T14:53:40;29.63;;;13.45;;
75730;SDS011;64350;47.450;19.124;2022-11-20T14:56:05;31.17;;;14.73;;
75730;SDS011;64350;47.450;19.124;2022-11-20T14:58:31;34.23;;;14.73;;
75730;SDS011;64350;47.450;19.124;2022-11-20T15:01:02;30.65;;;13.30;;
75730;SDS011;64350;47.450;19.124;2022-11-20T15:03:33;26.65;;;12.10;;
75730;SDS011;64350;47.450;19.124;2022-11-20T15:05:59;29.75;;;13.07;;
75730;SDS011;64350;47.450;19.124;2022-11-20T15:08:25;32.57;;;14.67;;
75730;SDS011;64350;47.450;19.124;2022-11-20T15:10:51;33.53;;;14.90;;
75730;SDS011;64350;47.450;19.124;2022-11-20T15:13:24;38.30;;;17.23;;
75730;SDS011;64350;47.450;19.124;2022-11-20T15:15:52;34.22;;;16.95;;
75730;SDS011;64350;47.450;19.124;2022-11-20T15:18:21;32.22;;;15.45;;
75730;SDS011;64350;47.450;19.124;2022-11-20T15:20:47;33.15;;;15.75;;
75730;SDS011;64350;47.450;19.124;2022-11-20T15:23:14;36.27;;;17.33;;
75730;SDS011;64350;47.450;19.124;2022-11-20T15:25:42;34.45;;;16.55;;
75730;SDS011;64350;47.450;19.124;2022-11-20T15:28:19;34.73;;;16.57;;
75730;SDS011;64350;47.450;19.124;2022-11-20T15:30:46;33.70;;;15.25;;
75730;SDS011;64350;47.450;19.124;2022-11-20T15:33:13;35.50;;;16.05;;
75730;SDS011;64350;47.450;19.124;2022-11-20T15:35:39;35.63;;;15.63;;
75730;SDS011;64350;47.450;19.124;2022-11-20T15:38:04;36.20;;;16.30;;
75730;SDS011;64350;47.450;19.124;2022-11-20T15:40:30;34.77;;;15.40;;
75730;SDS011;64350;47.450;19.124;2022-11-20T15:42:55;35.95;;;16.15;;
75730;SDS011;64350;47.450;19.124;2022-11-20T15:45:34;38.22;;;15.80;;
75730;SDS011;64350;47.450;19.124;2022-11-20T15:48:02;36.27;;;15.73;;
75730;SDS011;64350;47.450;19.124;2022-11-20T15:50:33;35.63;;;15.88;;
75730;SDS011;64350;47.450;19.124;2022-11-20T15:53:04;36.92;;;17.08;;
75730;SDS011;64350;47.450;19.124;2022-11-20T15:55:30;33.95;;;16.02;;
75730;SDS011;64350;47.450;19.124;2022-11-20T15:57:56;34.30;;;16.03;;
75730;SDS011;64350;47.450;19.124;2022-11-20T16:00:24;33.55;;;16.27;;
75730;SDS011;64350;47.450;19.124;2022-11-20T16:02:50;38.20;;;16.03;;
75730;SDS011;64350;47.450;19.124;2022-11-20T16:05:15;37.45;;;17.50;;
75730;SDS011;64350;47.450;19.124;2022-11-20T16:07:42;38.13;;;17.33;;
75730;SDS011;64350;47.450;19.124;2022-11-20T16:10:08;40.47;;;17.83;;
75730;SDS011;64350;47.450;19.124;2022-11-20T16:12:33;43.27;;;18.20;;
75730;SDS011;64350;47.450;19.124;2022-11-20T16:15:17;37.58;;;17.77;;
75730;SDS011;64350;47.450;19.124;2022-11-20T16:18:01;37.40;;;16.73;;
75730;SDS011;64350;47.450;19.124;2022-11-20T16:20:27;39.10;;;17.47;;
75730;SDS011;64350;47.450;19.124;2022-11-20T16:22:52;37.53;;;17.17;;
75730;SDS011;64350;47.450;19.124;2022-11-20T16:25:17;37.40;;;17.25;;
75730;SDS011;64350;47.450;19.124;2022-11-20T16:27:46;36.43;;;17.37;;
75730;SDS011;64350;47.450;19.124;2022-11-20T16:30:11;41.33;;;18.05;;
75730;SDS011;64350;47.450;19.124;2022-11-20T16:32:37;38.93;;;18.30;;
75730;SDS011;64350;47.450;19.124;2022-11-20T16:35:03;37.78;;;18.65;;
75730;SDS011;64350;47.450;19.124;2022-11-20T16:37:29;43.15;;;18.92;;
75730;SDS011;64350;47.450;19.124;2022-11-20T16:39:54;39.67;;;18.17;;
75730;SDS011;64350;47.450;19.124;2022-11-20T16:42:21;37.67;;;18.40;;
75730;SDS011;64350;47.450;19.124;2022-11-20T16:44:47;44.60;;;19.33;;
75730;SDS011;64350;47.450;19.124;2022-11-20T16:47:13;40.43;;;18.50;;
75730;SDS011;64350;47.450;19.124;2022-11-20T16:49:38;43.80;;;18.97;;
75730;SDS011;64350;47.450;19.124;2022-11-20T16:52:04;41.53;;;18.63;;
75730;SDS011;64350;47.450;19.124;2022-11-20T16:54:29;41.27;;;19.97;;
75730;SDS011;64350;47.450;19.124;2022-11-20T16:56:54;44.63;;;19.77;;
75730;SDS011;64350;47.450;19.124;2022-11-20T17:01:55;47.03;;;21.27;;
75730;SDS011;64350;47.450;19.124;2022-11-20T17:04:21;43.78;;;20.50;;
75730;SDS011;64350;47.450;19.124;2022-11-20T17:06:46;45.97;;;21.93;;
75730;SDS011;64350;47.450;19.124;2022-11-20T17:09:12;46.70;;;20.23;;
75730;SDS011;64350;47.450;19.124;2022-11-20T17:11:38;49.53;;;22.67;;
75730;SDS011;64350;47.450;19.124;2022-11-20T17:14:03;46.70;;;21.92;;
75730;SDS011;64350;47.450;19.124;2022-11-20T17:16:31;45.13;;;20.40;;
75730;SDS011;64350;47.450;19.124;2022-11-20T17:18:57;47.80;;;21.20;;
75730;SDS011;64350;47.450;19.124;2022-11-20T17:21:24;51.05;;;21.25;;
75730;SDS011;64350;47.450;19.124;2022-11-20T17:23:50;47.33;;;22.27;;
75730;SDS011;64350;47.450;19.124;2022-11-20T17:26:16;49.37;;;22.53;;
75730;SDS011;64350;47.450;19.124;2022-11-20T18:00:57;54.28;;;21.25;;
75730;SDS011;64350;47.450;19.124;2022-11-20T18:03:29;49.70;;;22.35;;
75730;SDS011;64350;47.450;19.124;2022-11-20T18:05:54;51.03;;;23.03;;
75730;SDS011;64350;47.450;19.124;2022-11-20T18:08:19;49.00;;;22.00;;
75730;SDS011;64350;47.450;19.124;2022-11-20T18:13:33;48.42;;;22.98;;
75730;SDS011;64350;47.450;19.124;2022-11-20T18:16:19;47.65;;;22.33;;
75730;SDS011;64350;47.450;19.124;2022-11-20T18:18:44;52.23;;;23.03;;
75730;SDS011;64350;47.450;19.124;2022-11-20T18:21:09;54.07;;;22.10;;
75730;SDS011;64350;47.450;19.124;2022-11-20T18:23:35;50.60;;;22.30;;
75730;SDS011;64350;47.450;19.124;2022-11-20T18:26:00;49.33;;;22.07;;
75730;SDS011;64350;47.450;19.124;2022-11-20T18:28:26;49.87;;;22.00;;
75730;SDS011;64350;47.450;19.124;2022-11-20T18:30:51;52.27;;;22.77;;
75730;SDS011;64350;47.450;19.124;2022-11-20T18:33:16;53.20;;;22.17;;
75730;SDS011;64350;47.450;19.124;2022-11-20T18:35:42;55.03;;;24.40;;
75730;SDS011;64350;47.450;19.124;2022-11-20T18:38:08;68.40;;;28.60;;
75730;SDS011;64350;47.450;19.124;2022-11-20T18:40:33;62.23;;;28.53;;
75730;SDS011;64350;47.450;19.124;2022-11-20T18:43:00;70.93;;;32.40;;
75730;SDS011;64350;47.450;19.124;2022-11-20T18:45:44;68.15;;;30.45;;
75730;SDS011;64350;47.450;19.124;2022-11-20T18:48:12;72.15;;;32.22;;
75730;SDS011;64350;47.450;19.124;2022-11-20T18:50:37;66.20;;;34.33;;
75730;SDS011;64350;47.450;19.124;2022-11-20T18:53:03;68.97;;;34.13;;
75730;SDS011;64350;47.450;19.124;2022-11-20T18:55:28;69.70;;;33.40;;
75730;SDS011;64350;47.450;19.124;2022-11-20T18:57:54;80.93;;;36.83;;
75730;SDS011;64350;47.450;19.124;2022-11-20T19:00:21;73.60;;;32.55;;
75730;SDS011;64350;47.450;19.124;2022-11-20T19:02:51;67.80;;;32.33;;
75730;SDS011;64350;47.450;19.124;2022-11-20T19:05:18;70.50;;;34.03;;
75730;SDS011;64350;47.450;19.124;2022-11-20T19:07:43;68.97;;;33.07;;
75730;SDS011;64350;47.450;19.124;2022-11-20T19:10:09;69.33;;;32.77;;
75730;SDS011;64350;47.450;19.124;2022-11-20T19:12:34;78.07;;;34.00;;
75730;SDS011;64350;47.450;19.124;2022-11-20T19:15:00;75.87;;;34.97;;
75730;SDS011;64350;47.450;19.124;2022-11-20T19:17:25;75.30;;;34.80;;
75730;SDS011;64350;47.450;19.124;2022-11-20T19:19:54;68.50;;;33.53;;
75730;SDS011;64350;47.450;19.124;2022-11-20T19:24:50;73.10;;;34.65;;
75730;SDS011;64350;47.450;19.124;2022-11-20T19:27:16;79.07;;;35.53;;
75730;SDS011;64350;47.450;19.124;2022-11-20T19:29:44;79.35;;;36.42;;
75730;SDS011;64350;47.450;19.124;2022-11-20T19:32:15;72.62;;;33.78;;
75730;SDS011;64350;47.450;19.124;2022-11-20T19:34:41;83.28;;;36.40;;
75730;SDS011;64350;47.450;19.124;2022-11-20T19:37:07;69.80;;;34.17;;
75730;SDS011;64350;47.450;19.124;2022-11-20T19:39:34;80.28;;;37.20;;
75730;SDS011;64350;47.450;19.124;2022-11-20T19:42:00;76.12;;;36.70;;
75730;SDS011;64350;47.450;19.124;2022-11-20T19:44:26;75.75;;;35.88;;
75730;SDS011;64350;47.450;19.124;2022-11-20T19:46:56;78.40;;;37.37;;
75730;SDS011;64350;47.450;19.124;2022-11-20T19:49:22;74.95;;;35.58;;
75730;SDS011;64350;47.450;19.124;2022-11-20T19:51:48;87.10;;;41.80;;
75730;SDS011;64350;47.450;19.124;2022-11-20T19:54:16;84.72;;;41.63;;
75730;SDS011;64350;47.450;19.124;2022-11-20T19:56:41;84.97;;;41.65;;
75730;SDS011;64350;47.450;19.124;2022-11-20T19:59:09;88.50;;;41.78;;
75730;SDS011;64350;47.450;19.124;2022-11-20T20:01:34;95.12;;;43.55;;
75730;SDS011;64350;47.450;19.124;2022-11-20T20:04:00;90.07;;;42.73;;
